Blaydon-on-Tyne, United Kingdom
Current Conditions -  °F | °C
As of 1:50 PM on Friday 19 Dec 2014 (Local Time) from EGNT Reporting Station
Rain Showers Rain Showers  
Wind Chill: 32°   Ceiling: Unl
Heat Index: 43°   Visibility: 6mi
Dew Point: 34°   Wind: 31mph
Humidity: 70%   Direction: 270°W
Pressure: 29.68"   Gusts: 43mph
Location:  54.96°N, 1.72°W
Report Text: EGNT 191350Z 27027G37KT 9999 VCSH FEW020 06/01 Q1005
Loading
Personal Weather Stations






























Interactive Weather Map New forecast layout! Learn more

10-Day Weather Forecast

Advertisements
Track Severe Weather on mobile